sensor_id;sensor_type;location;lat;lon;timestamp;temperature;humidity
13332;DHT22;6735;51.456;12.626;2023-07-09T00:02:26;20.40;53.60
13332;DHT22;6735;51.456;12.626;2023-07-09T00:04:52;20.40;53.80
13332;DHT22;6735;51.456;12.626;2023-07-09T00:07:28;20.30;54.10
13332;DHT22;6735;51.456;12.626;2023-07-09T00:09:55;20.20;55.70
13332;DHT22;6735;51.456;12.626;2023-07-09T00:12:20;20.20;54.60
13332;DHT22;6735;51.456;12.626;2023-07-09T00:14:46;20.10;55.00
13332;DHT22;6735;51.456;12.626;2023-07-09T00:17:23;20.20;55.20
13332;DHT22;6735;51.456;12.626;2023-07-09T00:19:50;20.10;55.30
13332;DHT22;6735;51.456;12.626;2023-07-09T00:22:18;20.00;55.60
13332;DHT22;6735;51.456;12.626;2023-07-09T00:24:44;19.90;55.80
13332;DHT22;6735;51.456;12.626;2023-07-09T00:27:11;19.90;55.90
13332;DHT22;6735;51.456;12.626;2023-07-09T00:29:37;19.80;56.10
13332;DHT22;6735;51.456;12.626;2023-07-09T00:32:03;19.80;56.40
13332;DHT22;6735;51.456;12.626;2023-07-09T00:34:28;19.70;56.50
13332;DHT22;6735;51.456;12.626;2023-07-09T00:36:53;19.70;56.70
13332;DHT22;6735;51.456;12.626;2023-07-09T00:39:20;19.60;57.10
13332;DHT22;6735;51.456;12.626;2023-07-09T00:41:47;19.50;57.30
13332;DHT22;6735;51.456;12.626;2023-07-09T00:44:29;19.50;57.60
13332;DHT22;6735;51.456;12.626;2023-07-09T00:49:35;19.30;58.00
13332;DHT22;6735;51.456;12.626;2023-07-09T00:52:17;19.20;58.40
13332;DHT22;6735;51.456;12.626;2023-07-09T00:54:45;19.20;58.30
13332;DHT22;6735;51.456;12.626;2023-07-09T00:57:14;19.20;58.70
13332;DHT22;6735;51.456;12.626;2023-07-09T00:59:48;19.10;58.80
13332;DHT22;6735;51.456;12.626;2023-07-09T01:02:15;19.10;59.10
13332;DHT22;6735;51.456;12.626;2023-07-09T01:04:43;19.00;59.30
13332;DHT22;6735;51.456;12.626;2023-07-09T01:07:08;19.00;59.50
13332;DHT22;6735;51.456;12.626;2023-07-09T01:09:34;19.00;59.90
13332;DHT22;6735;51.456;12.626;2023-07-09T01:12:08;18.90;60.00
13332;DHT22;6735;51.456;12.626;2023-07-09T01:14:34;18.90;60.20
13332;DHT22;6735;51.456;12.626;2023-07-09T01:17:03;18.80;60.50
13332;DHT22;6735;51.456;12.626;2023-07-09T01:19:35;18.80;60.60
13332;DHT22;6735;51.456;12.626;2023-07-09T01:22:08;18.70;60.80
13332;DHT22;6735;51.456;12.626;2023-07-09T01:27:14;18.70;61.90
13332;DHT22;6735;51.456;12.626;2023-07-09T01:29:41;18.70;61.40
13332;DHT22;6735;51.456;12.626;2023-07-09T01:32:07;18.60;61.60
13332;DHT22;6735;51.456;12.626;2023-07-09T01:34:33;18.60;61.80
13332;DHT22;6735;51.456;12.626;2023-07-09T01:36:59;18.50;62.00
13332;DHT22;6735;51.456;12.626;2023-07-09T01:39:26;18.50;62.10
13332;DHT22;6735;51.456;12.626;2023-07-09T01:41:53;18.50;62.20
13332;DHT22;6735;51.456;12.626;2023-07-09T01:44:19;18.40;62.40
13332;DHT22;6735;51.456;12.626;2023-07-09T01:46:44;18.40;62.50
13332;DHT22;6735;51.456;12.626;2023-07-09T01:49:11;18.30;62.80
13332;DHT22;6735;51.456;12.626;2023-07-09T01:51:36;18.30;62.90
13332;DHT22;6735;51.456;12.626;2023-07-09T01:54:03;18.30;63.00
13332;DHT22;6735;51.456;12.626;2023-07-09T01:56:28;18.30;63.20
13332;DHT22;6735;51.456;12.626;2023-07-09T01:58:54;18.20;63.40
13332;DHT22;6735;51.456;12.626;2023-07-09T02:01:29;18.20;63.60
13332;DHT22;6735;51.456;12.626;2023-07-09T02:03:54;18.20;63.70
13332;DHT22;6735;51.456;12.626;2023-07-09T02:06:20;18.20;63.90
13332;DHT22;6735;51.456;12.626;2023-07-09T02:08:45;18.10;64.10
13332;DHT22;6735;51.456;12.626;2023-07-09T02:11:11;18.10;64.30
13332;DHT22;6735;51.456;12.626;2023-07-09T02:13:36;18.10;64.40
13332;DHT22;6735;51.456;12.626;2023-07-09T02:16:02;18.00;64.40
13332;DHT22;6735;51.456;12.626;2023-07-09T02:18:28;18.00;64.70
13332;DHT22;6735;51.456;12.626;2023-07-09T02:20:54;18.00;64.80
13332;DHT22;6735;51.456;12.626;2023-07-09T02:23:20;18.00;64.90
13332;DHT22;6735;51.456;12.626;2023-07-09T02:25:45;17.90;65.00
13332;DHT22;6735;51.456;12.626;2023-07-09T02:28:11;17.90;65.10
13332;DHT22;6735;51.456;12.626;2023-07-09T02:30:36;17.90;65.40
13332;DHT22;6735;51.456;12.626;2023-07-09T02:33:02;17.90;65.50
13332;DHT22;6735;51.456;12.626;2023-07-09T02:35:27;17.90;65.40
13332;DHT22;6735;51.456;12.626;2023-07-09T02:37:53;17.80;65.60
13332;DHT22;6735;51.456;12.626;2023-07-09T02:40:18;17.80;65.80
13332;DHT22;6735;51.456;12.626;2023-07-09T02:42:44;17.80;65.80
13332;DHT22;6735;51.456;12.626;2023-07-09T02:45:10;17.70;66.00
13332;DHT22;6735;51.456;12.626;2023-07-09T02:47:35;17.70;66.00
13332;DHT22;6735;51.456;12.626;2023-07-09T02:50:01;17.70;66.20
13332;DHT22;6735;51.456;12.626;2023-07-09T02:52:27;17.70;66.20
13332;DHT22;6735;51.456;12.626;2023-07-09T02:54:52;17.60;66.30
13332;DHT22;6735;51.456;12.626;2023-07-09T02:57:18;17.60;66.40
13332;DHT22;6735;51.456;12.626;2023-07-09T02:59:43;17.60;66.60
13332;DHT22;6735;51.456;12.626;2023-07-09T03:02:09;17.60;66.60
13332;DHT22;6735;51.456;12.626;2023-07-09T03:04:35;17.60;66.60
13332;DHT22;6735;51.456;12.626;2023-07-09T03:07:00;17.60;66.50
13332;DHT22;6735;51.456;12.626;2023-07-09T03:09:26;17.50;66.40
13332;DHT22;6735;51.456;12.626;2023-07-09T03:11:53;17.50;66.30
13332;DHT22;6735;51.456;12.626;2023-07-09T03:14:18;17.50;66.30
13332;DHT22;6735;51.456;12.626;2023-07-09T03:16:44;17.50;66.50
13332;DHT22;6735;51.456;12.626;2023-07-09T03:19:09;17.50;66.50
13332;DHT22;6735;51.456;12.626;2023-07-09T03:21:34;17.50;66.50
13332;DHT22;6735;51.456;12.626;2023-07-09T03:24:00;17.50;66.40
13332;DHT22;6735;51.456;12.626;2023-07-09T03:26:26;17.50;66.50
13332;DHT22;6735;51.456;12.626;2023-07-09T03:28:52;17.50;66.50
13332;DHT22;6735;51.456;12.626;2023-07-09T03:31:19;17.50;66.40
13332;DHT22;6735;51.456;12.626;2023-07-09T03:33:47;17.50;66.30
13332;DHT22;6735;51.456;12.626;2023-07-09T03:36:13;17.50;66.30
13332;DHT22;6735;51.456;12.626;2023-07-09T03:38:38;17.50;66.20
13332;DHT22;6735;51.456;12.626;2023-07-09T03:41:04;17.60;65.90
13332;DHT22;6735;51.456;12.626;2023-07-09T03:43:30;17.60;65.70
13332;DHT22;6735;51.456;12.626;2023-07-09T03:45:55;17.60;65.60
13332;DHT22;6735;51.456;12.626;2023-07-09T03:48:21;17.70;65.50
13332;DHT22;6735;51.456;12.626;2023-07-09T03:50:47;17.70;65.40
13332;DHT22;6735;51.456;12.626;2023-07-09T03:53:13;17.70;65.40
13332;DHT22;6735;51.456;12.626;2023-07-09T03:55:39;17.80;65.30
13332;DHT22;6735;51.456;12.626;2023-07-09T03:58:06;17.80;65.10
13332;DHT22;6735;51.456;12.626;2023-07-09T04:00:32;17.90;64.90
13332;DHT22;6735;51.456;12.626;2023-07-09T04:02:57;18.00;64.90
13332;DHT22;6735;51.456;12.626;2023-07-09T04:05:24;18.00;64.50
13332;DHT22;6735;51.456;12.626;2023-07-09T04:07:49;18.00;64.30
13332;DHT22;6735;51.456;12.626;2023-07-09T04:10:15;18.10;64.30
13332;DHT22;6735;51.456;12.626;2023-07-09T04:12:41;18.20;64.10
13332;DHT22;6735;51.456;12.626;2023-07-09T04:15:07;18.20;63.90
13332;DHT22;6735;51.456;12.626;2023-07-09T04:17:33;18.20;63.80
13332;DHT22;6735;51.456;12.626;2023-07-09T04:19:59;18.30;63.60
13332;DHT22;6735;51.456;12.626;2023-07-09T04:22:24;18.40;63.30
13332;DHT22;6735;51.456;12.626;2023-07-09T04:24:50;18.50;63.00
13332;DHT22;6735;51.456;12.626;2023-07-09T04:27:17;18.50;62.90
13332;DHT22;6735;51.456;12.626;2023-07-09T04:29:43;18.60;62.70
13332;DHT22;6735;51.456;12.626;2023-07-09T04:32:13;18.70;62.50
13332;DHT22;6735;51.456;12.626;2023-07-09T04:34:38;18.80;62.40
13332;DHT22;6735;51.456;12.626;2023-07-09T04:37:09;18.80;62.10
13332;DHT22;6735;51.456;12.626;2023-07-09T04:39:35;18.90;61.90
13332;DHT22;6735;51.456;12.626;2023-07-09T04:42:01;18.90;61.80
13332;DHT22;6735;51.456;12.626;2023-07-09T04:44:26;19.00;61.70
13332;DHT22;6735;51.456;12.626;2023-07-09T04:46:52;19.10;61.50
13332;DHT22;6735;51.456;12.626;2023-07-09T04:49:17;19.10;61.40
13332;DHT22;6735;51.456;12.626;2023-07-09T04:51:43;19.20;61.10
13332;DHT22;6735;51.456;12.626;2023-07-09T04:54:08;19.30;60.90
13332;DHT22;6735;51.456;12.626;2023-07-09T04:56:34;19.50;60.60
13332;DHT22;6735;51.456;12.626;2023-07-09T04:58:59;19.70;60.20
13332;DHT22;6735;51.456;12.626;2023-07-09T05:01:25;21.10;57.80
13332;DHT22;6735;51.456;12.626;2023-07-09T05:03:50;22.80;53.80
13332;DHT22;6735;51.456;12.626;2023-07-09T05:06:16;24.10;51.30
13332;DHT22;6735;51.456;12.626;2023-07-09T05:08:41;25.20;49.60
13332;DHT22;6735;51.456;12.626;2023-07-09T05:11:08;26.10;47.80
13332;DHT22;6735;51.456;12.626;2023-07-09T05:13:34;26.90;46.00
13332;DHT22;6735;51.456;12.626;2023-07-09T05:15:59;27.70;44.90
13332;DHT22;6735;51.456;12.626;2023-07-09T05:18:25;28.20;43.70
13332;DHT22;6735;51.456;12.626;2023-07-09T05:20:50;28.30;43.60
13332;DHT22;6735;51.456;12.626;2023-07-09T05:23:16;29.00;42.40
13332;DHT22;6735;51.456;12.626;2023-07-09T05:25:41;29.30;41.90
13332;DHT22;6735;51.456;12.626;2023-07-09T05:28:07;29.90;40.60
13332;DHT22;6735;51.456;12.626;2023-07-09T05:30:33;30.40;39.80
13332;DHT22;6735;51.456;12.626;2023-07-09T05:32:58;31.10;37.80
13332;DHT22;6735;51.456;12.626;2023-07-09T05:35:25;31.60;37.10
13332;DHT22;6735;51.456;12.626;2023-07-09T05:37:54;31.50;36.90
13332;DHT22;6735;51.456;12.626;2023-07-09T05:40:20;31.70;36.00
13332;DHT22;6735;51.456;12.626;2023-07-09T05:42:47;31.60;36.00
13332;DHT22;6735;51.456;12.626;2023-07-09T05:45:12;31.80;35.50
13332;DHT22;6735;51.456;12.626;2023-07-09T05:47:38;31.70;35.40
13332;DHT22;6735;51.456;12.626;2023-07-09T05:50:04;31.90;35.00
13332;DHT22;6735;51.456;12.626;2023-07-09T05:52:29;32.10;34.70
13332;DHT22;6735;51.456;12.626;2023-07-09T05:54:55;32.20;34.30
13332;DHT22;6735;51.456;12.626;2023-07-09T05:57:21;32.40;33.80
13332;DHT22;6735;51.456;12.626;2023-07-09T05:59:47;32.40;34.00
13332;DHT22;6735;51.456;12.626;2023-07-09T06:02:15;32.60;33.80
13332;DHT22;6735;51.456;12.626;2023-07-09T06:04:41;32.70;33.50
13332;DHT22;6735;51.456;12.626;2023-07-09T06:07:07;32.60;33.30
13332;DHT22;6735;51.456;12.626;2023-07-09T06:09:34;32.50;33.60
13332;DHT22;6735;51.456;12.626;2023-07-09T06:12:00;32.60;33.50
13332;DHT22;6735;51.456;12.626;2023-07-09T06:14:26;32.70;33.20
13332;DHT22;6735;51.456;12.626;2023-07-09T06:16:52;32.70;33.10
13332;DHT22;6735;51.456;12.626;2023-07-09T06:19:17;33.20;32.50
13332;DHT22;6735;51.456;12.626;2023-07-09T06:21:43;33.00;32.30
13332;DHT22;6735;51.456;12.626;2023-07-09T06:24:09;32.70;32.80
13332;DHT22;6735;51.456;12.626;2023-07-09T06:26:34;32.60;32.90
13332;DHT22;6735;51.456;12.626;2023-07-09T06:29:00;33.00;32.60
13332;DHT22;6735;51.456;12.626;2023-07-09T06:31:25;32.90;32.40
13332;DHT22;6735;51.456;12.626;2023-07-09T06:33:51;33.00;32.40
13332;DHT22;6735;51.456;12.626;2023-07-09T06:36:17;32.90;32.30
13332;DHT22;6735;51.456;12.626;2023-07-09T06:38:43;32.80;32.40
13332;DHT22;6735;51.456;12.626;2023-07-09T06:41:09;33.00;32.30
13332;DHT22;6735;51.456;12.626;2023-07-09T06:43:35;33.40;31.90
13332;DHT22;6735;51.456;12.626;2023-07-09T06:46:04;33.20;32.10
13332;DHT22;6735;51.456;12.626;2023-07-09T06:48:30;33.20;32.20
13332;DHT22;6735;51.456;12.626;2023-07-09T06:50:56;33.10;32.00
13332;DHT22;6735;51.456;12.626;2023-07-09T06:53:23;33.00;31.60
13332;DHT22;6735;51.456;12.626;2023-07-09T06:55:48;32.90;31.60
13332;DHT22;6735;51.456;12.626;2023-07-09T06:58:20;32.90;31.50
13332;DHT22;6735;51.456;12.626;2023-07-09T07:00:48;32.50;31.90
13332;DHT22;6735;51.456;12.626;2023-07-09T07:03:14;32.80;31.60
13332;DHT22;6735;51.456;12.626;2023-07-09T07:05:47;33.20;31.10
13332;DHT22;6735;51.456;12.626;2023-07-09T07:08:16;33.20;30.70
13332;DHT22;6735;51.456;12.626;2023-07-09T07:10:43;33.20;31.10
13332;DHT22;6735;51.456;12.626;2023-07-09T07:13:09;33.20;30.90
13332;DHT22;6735;51.456;12.626;2023-07-09T07:15:37;33.10;31.30
13332;DHT22;6735;51.456;12.626;2023-07-09T07:18:03;32.90;31.60
13332;DHT22;6735;51.456;12.626;2023-07-09T07:20:29;33.00;31.60
13332;DHT22;6735;51.456;12.626;2023-07-09T07:22:55;32.70;31.90
13332;DHT22;6735;51.456;12.626;2023-07-09T07:25:21;32.60;31.90
13332;DHT22;6735;51.456;12.626;2023-07-09T07:27:47;32.80;31.80
13332;DHT22;6735;51.456;12.626;2023-07-09T07:30:12;32.80;31.70
13332;DHT22;6735;51.456;12.626;2023-07-09T07:32:42;32.70;32.00
13332;DHT22;6735;51.456;12.626;2023-07-09T07:35:08;32.80;31.70
13332;DHT22;6735;51.456;12.626;2023-07-09T07:37:34;32.70;31.70
13332;DHT22;6735;51.456;12.626;2023-07-09T07:40:00;32.50;31.70
13332;DHT22;6735;51.456;12.626;2023-07-09T07:42:25;32.60;31.50
13332;DHT22;6735;51.456;12.626;2023-07-09T07:44:51;32.70;31.40
13332;DHT22;6735;51.456;12.626;2023-07-09T07:47:17;32.50;31.70
13332;DHT22;6735;51.456;12.626;2023-07-09T07:49:43;32.70;31.40
13332;DHT22;6735;51.456;12.626;2023-07-09T07:52:08;32.80;31.20
13332;DHT22;6735;51.456;12.626;2023-07-09T07:54:35;33.10;31.00
13332;DHT22;6735;51.456;12.626;2023-07-09T07:57:01;33.30;30.90
13332;DHT22;6735;51.456;12.626;2023-07-09T07:59:26;33.30;30.80
13332;DHT22;6735;51.456;12.626;2023-07-09T08:01:52;33.40;30.60
13332;DHT22;6735;51.456;12.626;2023-07-09T08:04:18;33.70;30.40
13332;DHT22;6735;51.456;12.626;2023-07-09T08:06:43;33.70;30.40
13332;DHT22;6735;51.456;12.626;2023-07-09T08:09:09;33.70;30.00
13332;DHT22;6735;51.456;12.626;2023-07-09T08:11:34;33.60;30.10
13332;DHT22;6735;51.456;12.626;2023-07-09T08:14:00;33.50;30.10
13332;DHT22;6735;51.456;12.626;2023-07-09T08:16:26;33.80;29.70
13332;DHT22;6735;51.456;12.626;2023-07-09T08:18:51;34.00;29.60
13332;DHT22;6735;51.456;12.626;2023-07-09T08:21:17;34.20;29.40
13332;DHT22;6735;51.456;12.626;2023-07-09T08:23:43;34.20;29.20
13332;DHT22;6735;51.456;12.626;2023-07-09T08:26:08;34.20;28.90
13332;DHT22;6735;51.456;12.626;2023-07-09T08:28:34;34.60;28.70
13332;DHT22;6735;51.456;12.626;2023-07-09T08:31:00;34.80;27.10
13332;DHT22;6735;51.456;12.626;2023-07-09T08:33:26;34.80;27.50
13332;DHT22;6735;51.456;12.626;2023-07-09T08:35:53;34.90;26.80
13332;DHT22;6735;51.456;12.626;2023-07-09T08:38:19;35.00;26.10
13332;DHT22;6735;51.456;12.626;2023-07-09T08:41:33;35.10;26.40
13332;DHT22;6735;51.456;12.626;2023-07-09T08:47:29;35.40;25.70
13332;DHT22;6735;51.456;12.626;2023-07-09T08:49:59;35.50;25.60
13332;DHT22;6735;51.456;12.626;2023-07-09T08:52:33;35.40;26.30
13332;DHT22;6735;51.456;12.626;2023-07-09T08:55:06;35.70;26.30
13332;DHT22;6735;51.456;12.626;2023-07-09T08:57:37;36.20;25.80
13332;DHT22;6735;51.456;12.626;2023-07-09T09:00:17;36.70;25.30
13332;DHT22;6735;51.456;12.626;2023-07-09T09:02:56;37.00;22.80
13332;DHT22;6735;51.456;12.626;2023-07-09T09:05:24;36.90;21.80
13332;DHT22;6735;51.456;12.626;2023-07-09T09:07:56;36.90;23.50
13332;DHT22;6735;51.456;12.626;2023-07-09T09:10:35;37.10;23.10
13332;DHT22;6735;51.456;12.626;2023-07-09T09:13:13;37.20;21.60
13332;DHT22;6735;51.456;12.626;2023-07-09T09:15:40;37.20;21.30
13332;DHT22;6735;51.456;12.626;2023-07-09T09:18:21;36.80;23.00
13332;DHT22;6735;51.456;12.626;2023-07-09T09:20:53;36.90;22.50
13332;DHT22;6735;51.456;12.626;2023-07-09T09:23:21;37.00;22.10
13332;DHT22;6735;51.456;12.626;2023-07-09T09:25:52;36.80;22.80
13332;DHT22;6735;51.456;12.626;2023-07-09T09:28:18;36.90;22.00
13332;DHT22;6735;51.456;12.626;2023-07-09T09:30:44;37.10;22.20
13332;DHT22;6735;51.456;12.626;2023-07-09T09:33:11;37.20;22.10
13332;DHT22;6735;51.456;12.626;2023-07-09T09:35:41;37.10;22.30
13332;DHT22;6735;51.456;12.626;2023-07-09T09:38:16;37.00;21.90
13332;DHT22;6735;51.456;12.626;2023-07-09T09:40:41;37.20;21.70
13332;DHT22;6735;51.456;12.626;2023-07-09T09:43:18;37.40;22.00
13332;DHT22;6735;51.456;12.626;2023-07-09T09:45:47;37.50;20.80
13332;DHT22;6735;51.456;12.626;2023-07-09T09:50:41;37.70;21.60
13332;DHT22;6735;51.456;12.626;2023-07-09T09:53:08;37.60;21.70
13332;DHT22;6735;51.456;12.626;2023-07-09T09:55:35;37.60;21.80
13332;DHT22;6735;51.456;12.626;2023-07-09T09:58:00;37.70;21.70
13332;DHT22;6735;51.456;12.626;2023-07-09T10:00:29;37.80;21.40
13332;DHT22;6735;51.456;12.626;2023-07-09T10:03:01;37.90;21.40
13332;DHT22;6735;51.456;12.626;2023-07-09T10:05:52;38.00;21.50
13332;DHT22;6735;51.456;12.626;2023-07-09T10:13:57;38.00;20.50
13332;DHT22;6735;51.456;12.626;2023-07-09T10:16:38;38.20;21.20
13332;DHT22;6735;51.456;12.626;2023-07-09T10:19:19;38.40;21.00
13332;DHT22;6735;51.456;12.626;2023-07-09T10:21:54;38.40;20.10
13332;DHT22;6735;51.456;12.626;2023-07-09T10:24:50;38.20;20.30
13332;DHT22;6735;51.456;12.626;2023-07-09T10:27:44;38.40;18.80
13332;DHT22;6735;51.456;12.626;2023-07-09T10:30:19;38.20;19.30
13332;DHT22;6735;51.456;12.626;2023-07-09T10:33:08;38.10;20.20
13332;DHT22;6735;51.456;12.626;2023-07-09T10:35:54;38.20;19.90
13332;DHT22;6735;51.456;12.626;2023-07-09T10:41:12;38.20;19.50
13332;DHT22;6735;51.456;12.626;2023-07-09T10:43:45;38.10;19.70
13332;DHT22;6735;51.456;12.626;2023-07-09T10:46:33;38.20;19.10
13332;DHT22;6735;51.456;12.626;2023-07-09T10:49:01;38.20;19.00
13332;DHT22;6735;51.456;12.626;2023-07-09T10:51:51;38.30;19.40
13332;DHT22;6735;51.456;12.626;2023-07-09T10:54:39;38.30;18.90
13332;DHT22;6735;51.456;12.626;2023-07-09T10:57:19;38.50;18.30
13332;DHT22;6735;51.456;12.626;2023-07-09T10:59:48;38.70;17.70
13332;DHT22;6735;51.456;12.626;2023-07-09T11:02:23;38.80;18.70
13332;DHT22;6735;51.456;12.626;2023-07-09T11:07:33;39.10;18.40
13332;DHT22;6735;51.456;12.626;2023-07-09T11:10:04;39.00;18.20
13332;DHT22;6735;51.456;12.626;2023-07-09T11:12:37;38.90;18.50
13332;DHT22;6735;51.456;12.626;2023-07-09T11:15:15;38.70;18.10
13332;DHT22;6735;51.456;12.626;2023-07-09T11:17:44;38.70;18.70
13332;DHT22;6735;51.456;12.626;2023-07-09T11:23:02;38.30;18.90
13332;DHT22;6735;51.456;12.626;2023-07-09T11:25:41;38.50;18.90
13332;DHT22;6735;51.456;12.626;2023-07-09T11:28:08;38.50;18.50
13332;DHT22;6735;51.456;12.626;2023-07-09T11:30:54;38.60;19.00
13332;DHT22;6735;51.456;12.626;2023-07-09T11:33:29;38.70;18.70
13332;DHT22;6735;51.456;12.626;2023-07-09T11:36:08;38.90;18.40
13332;DHT22;6735;51.456;12.626;2023-07-09T11:38:43;39.00;18.20
13332;DHT22;6735;51.456;12.626;2023-07-09T11:46:31;38.70;18.60
13332;DHT22;6735;51.456;12.626;2023-07-09T11:48:58;38.50;18.90
13332;DHT22;6735;51.456;12.626;2023-07-09T11:51:54;38.40;18.90
13332;DHT22;6735;51.456;12.626;2023-07-09T11:54:20;38.70;18.70
13332;DHT22;6735;51.456;12.626;2023-07-09T11:56:56;38.60;19.10
13332;DHT22;6735;51.456;12.626;2023-07-09T11:59:22;38.40;19.30
13332;DHT22;6735;51.456;12.626;2023-07-09T12:01:48;38.20;19.40
13332;DHT22;6735;51.456;12.626;2023-07-09T12:04:21;38.40;19.40
13332;DHT22;6735;51.456;12.626;2023-07-09T12:06:47;38.60;19.20
13332;DHT22;6735;51.456;12.626;2023-07-09T12:09:20;38.70;19.10
13332;DHT22;6735;51.456;12.626;2023-07-09T12:11:48;38.80;18.90
13332;DHT22;6735;51.456;12.626;2023-07-09T12:14:18;39.00;19.00
13332;DHT22;6735;51.456;12.626;2023-07-09T12:16:46;39.20;18.70
13332;DHT22;6735;51.456;12.626;2023-07-09T12:19:13;39.40;18.70
13332;DHT22;6735;51.456;12.626;2023-07-09T12:21:42;39.60;18.40
13332;DHT22;6735;51.456;12.626;2023-07-09T12:24:20;39.70;18.50
13332;DHT22;6735;51.456;12.626;2023-07-09T12:26:53;39.70;18.30
13332;DHT22;6735;51.456;12.626;2023-07-09T12:29:19;39.70;18.10
13332;DHT22;6735;51.456;12.626;2023-07-09T12:31:45;39.70;18.50
13332;DHT22;6735;51.456;12.626;2023-07-09T12:34:14;39.90;18.20
13332;DHT22;6735;51.456;12.626;2023-07-09T12:36:50;39.80;18.00
13332;DHT22;6735;51.456;12.626;2023-07-09T12:39:24;39.80;18.00
13332;DHT22;6735;51.456;12.626;2023-07-09T12:41:51;39.80;17.90
13332;DHT22;6735;51.456;12.626;2023-07-09T12:44:21;39.50;18.30
13332;DHT22;6735;51.456;12.626;2023-07-09T12:46:49;39.30;18.50
13332;DHT22;6735;51.456;12.626;2023-07-09T12:49:24;39.30;18.20
13332;DHT22;6735;51.456;12.626;2023-07-09T12:51:51;39.60;18.40
13332;DHT22;6735;51.456;12.626;2023-07-09T12:54:19;39.80;18.20
13332;DHT22;6735;51.456;12.626;2023-07-09T12:56:45;39.80;18.10
13332;DHT22;6735;51.456;12.626;2023-07-09T12:59:23;39.70;18.20
13332;DHT22;6735;51.456;12.626;2023-07-09T13:01:57;39.80;18.00
13332;DHT22;6735;51.456;12.626;2023-07-09T13:04:33;39.80;17.90
13332;DHT22;6735;51.456;12.626;2023-07-09T13:07:01;39.90;17.90
13332;DHT22;6735;51.456;12.626;2023-07-09T13:09:27;39.70;18.10
13332;DHT22;6735;51.456;12.626;2023-07-09T13:11:54;39.60;18.10
13332;DHT22;6735;51.456;12.626;2023-07-09T13:14:23;39.60;18.10
13332;DHT22;6735;51.456;12.626;2023-07-09T13:16:48;39.60;18.30
13332;DHT22;6735;51.456;12.626;2023-07-09T13:19:15;39.70;18.10
13332;DHT22;6735;51.456;12.626;2023-07-09T13:21:40;39.70;17.90
13332;DHT22;6735;51.456;12.626;2023-07-09T13:24:20;39.50;18.10
13332;DHT22;6735;51.456;12.626;2023-07-09T13:26:47;39.60;18.10
13332;DHT22;6735;51.456;12.626;2023-07-09T13:29:17;39.70;18.30
13332;DHT22;6735;51.456;12.626;2023-07-09T13:31:47;39.70;18.10
13332;DHT22;6735;51.456;12.626;2023-07-09T13:34:24;39.50;18.40
13332;DHT22;6735;51.456;12.626;2023-07-09T13:36:50;39.60;18.10
13332;DHT22;6735;51.456;12.626;2023-07-09T13:39:17;39.60;18.40
13332;DHT22;6735;51.456;12.626;2023-07-09T13:41:44;39.50;18.60
13332;DHT22;6735;51.456;12.626;2023-07-09T13:44:14;39.10;18.60
13332;DHT22;6735;51.456;12.626;2023-07-09T13:46:40;38.80;18.70
13332;DHT22;6735;51.456;12.626;2023-07-09T13:49:14;38.30;18.90
13332;DHT22;6735;51.456;12.626;2023-07-09T13:51:45;38.20;19.10
13332;DHT22;6735;51.456;12.626;2023-07-09T13:54:16;38.20;19.00
13332;DHT22;6735;51.456;12.626;2023-07-09T13:56:42;37.80;19.20
13332;DHT22;6735;51.456;12.626;2023-07-09T13:59:13;37.70;19.50
13332;DHT22;6735;51.456;12.626;2023-07-09T14:01:39;37.90;19.20
13332;DHT22;6735;51.456;12.626;2023-07-09T14:04:05;38.00;19.30
13332;DHT22;6735;51.456;12.626;2023-07-09T14:06:31;37.90;19.40
13332;DHT22;6735;51.456;12.626;2023-07-09T14:08:56;37.90;19.60
13332;DHT22;6735;51.456;12.626;2023-07-09T14:11:22;38.20;19.40
13332;DHT22;6735;51.456;12.626;2023-07-09T14:13:47;38.20;19.50
13332;DHT22;6735;51.456;12.626;2023-07-09T14:16:13;38.20;19.40
13332;DHT22;6735;51.456;12.626;2023-07-09T14:18:40;38.10;19.30
13332;DHT22;6735;51.456;12.626;2023-07-09T14:21:22;38.10;19.40
13332;DHT22;6735;51.456;12.626;2023-07-09T14:23:49;38.10;19.20
13332;DHT22;6735;51.456;12.626;2023-07-09T14:26:14;38.00;19.60
13332;DHT22;6735;51.456;12.626;2023-07-09T14:28:40;38.00;19.40
13332;DHT22;6735;51.456;12.626;2023-07-09T14:31:26;37.80;19.60
13332;DHT22;6735;51.456;12.626;2023-07-09T14:33:52;37.50;20.00
13332;DHT22;6735;51.456;12.626;2023-07-09T14:36:17;37.20;20.20
13332;DHT22;6735;51.456;12.626;2023-07-09T14:38:43;37.00;20.40
13332;DHT22;6735;51.456;12.626;2023-07-09T14:41:19;36.80;20.70
13332;DHT22;6735;51.456;12.626;2023-07-09T14:43:45;36.70;21.40
13332;DHT22;6735;51.456;12.626;2023-07-09T14:46:11;36.70;21.00
13332;DHT22;6735;51.456;12.626;2023-07-09T14:48:37;36.90;21.00
13332;DHT22;6735;51.456;12.626;2023-07-09T14:51:17;37.00;21.10
13332;DHT22;6735;51.456;12.626;2023-07-09T14:53:43;37.10;21.20
13332;DHT22;6735;51.456;12.626;2023-07-09T14:56:11;37.10;21.20
13332;DHT22;6735;51.456;12.626;2023-07-09T14:58:38;37.40;21.00
13332;DHT22;6735;51.456;12.626;2023-07-09T15:01:03;37.70;20.80
13332;DHT22;6735;51.456;12.626;2023-07-09T15:03:29;37.80;20.70
13332;DHT22;6735;51.456;12.626;2023-07-09T15:05:55;37.80;20.80
13332;DHT22;6735;51.456;12.626;2023-07-09T15:08:23;37.70;20.90
13332;DHT22;6735;51.456;12.626;2023-07-09T15:10:52;37.60;21.00
13332;DHT22;6735;51.456;12.626;2023-07-09T15:13:31;37.50;20.90
13332;DHT22;6735;51.456;12.626;2023-07-09T15:16:01;37.40;20.70
13332;DHT22;6735;51.456;12.626;2023-07-09T15:18:26;37.30;20.80
13332;DHT22;6735;51.456;12.626;2023-07-09T15:21:01;37.10;21.00
13332;DHT22;6735;51.456;12.626;2023-07-09T15:23:27;37.00;20.90
13332;DHT22;6735;51.456;12.626;2023-07-09T15:25:53;36.90;20.80
13332;DHT22;6735;51.456;12.626;2023-07-09T15:28:19;36.80;20.90
13332;DHT22;6735;51.456;12.626;2023-07-09T15:30:45;36.60;20.80
13332;DHT22;6735;51.456;12.626;2023-07-09T15:33:16;36.40;21.10
13332;DHT22;6735;51.456;12.626;2023-07-09T15:35:43;36.30;21.10
13332;DHT22;6735;51.456;12.626;2023-07-09T15:40:43;36.10;21.50
13332;DHT22;6735;51.456;12.626;2023-07-09T15:43:09;36.00;21.90
13332;DHT22;6735;51.456;12.626;2023-07-09T15:45:41;35.90;22.00
13332;DHT22;6735;51.456;12.626;2023-07-09T15:48:20;35.80;22.20
13332;DHT22;6735;51.456;12.626;2023-07-09T15:50:46;35.80;22.40
13332;DHT22;6735;51.456;12.626;2023-07-09T15:53:11;35.70;22.60
13332;DHT22;6735;51.456;12.626;2023-07-09T15:55:37;35.60;22.70
13332;DHT22;6735;51.456;12.626;2023-07-09T15:58:02;35.60;22.90
13332;DHT22;6735;51.456;12.626;2023-07-09T16:00:30;35.60;22.90
13332;DHT22;6735;51.456;12.626;2023-07-09T16:02:58;35.50;23.20
13332;DHT22;6735;51.456;12.626;2023-07-09T16:05:30;35.50;23.10
13332;DHT22;6735;51.456;12.626;2023-07-09T16:07:58;35.40;23.20
13332;DHT22;6735;51.456;12.626;2023-07-09T16:10:26;35.30;23.20
13332;DHT22;6735;51.456;12.626;2023-07-09T16:12:53;35.20;23.10